Time;durP1;ratioP1;P1;durP2;ratioP2;P2;SDS_P1;SDS_P2;PMS_P1;PMS_P2;Temp;Humidity;BMP_temperature;BMP_pressure;BME280_temperature;BME280_humidity;BME280_pressure;Samples;Min_cycle;Max_cycle;Signal;HPM_P1;HPM_P2
2022/07/30 00:01:57;;;;;;;0.45;0.30;;;13.30;99.90;;;;;;5055741;28;20048;-82
2022/07/30 00:04:23;;;;;;;0.20;0.20;;;13.30;99.90;;;;;;5073526;28;20541;-82
2022/07/30 00:06:49;;;;;;;0.20;0.20;;;13.20;99.90;;;;;;5076034;28;20389;-82
2022/07/30 00:09:14;;;;;;;0.75;0.28;;;13.20;99.90;;;;;;5056843;28;20043;-82
2022/07/30 00:11:40;;;;;;;0.05;0.05;;;13.20;99.90;;;;;;5056159;28;20037;-82
2022/07/30 00:14:06;;;;;;;0.00;0.00;;;13.20;99.90;;;;;;5054978;28;20074;-82
2022/07/30 00:16:32;;;;;;;0.13;0.13;;;13.20;99.90;;;;;;5059247;28;20124;-82
2022/07/30 00:18:57;;;;;;;0.52;0.52;;;13.20;99.90;;;;;;5075887;28;20430;-82
2022/07/30 00:21:23;;;;;;;0.20;0.20;;;13.10;99.90;;;;;;5059637;28;20036;-83
2022/07/30 00:23:49;;;;;;;0.05;0.05;;;13.10;99.90;;;;;;5087488;28;20051;-82
2022/07/30 00:26:14;;;;;;;0.20;0.20;;;13.10;99.90;;;;;;5055640;28;20044;-82
2022/07/30 00:28:40;;;;;;;0.30;0.30;;;13.10;99.90;;;;;;5039512;28;20064;-82
2022/07/30 00:31:06;;;;;;;0.25;0.20;;;13.10;99.90;;;;;;5055647;28;20119;-82
2022/07/30 00:33:31;;;;;;;0.32;0.32;;;13.10;99.90;;;;;;5024727;28;20098;-83
2022/07/30 00:35:57;;;;;;;0.00;0.00;;;13.00;99.90;;;;;;5055640;28;20394;-83
2022/07/30 00:38:23;;;;;;;0.08;0.08;;;13.00;99.90;;;;;;5055526;28;20113;-83
2022/07/30 00:40:48;;;;;;;0.10;0.10;;;13.00;99.90;;;;;;5039243;28;20044;-83
2022/07/30 00:43:16;;;;;;;0.10;0.10;;;12.90;99.90;;;;;;5075090;28;20473;-83
2022/07/30 00:45:43;;;;;;;0.32;0.32;;;12.90;99.90;;;;;;5075502;28;20032;-83
2022/07/30 00:48:10;;;;;;;0.00;0.00;;;12.90;99.90;;;;;;5075763;28;20067;-83
2022/07/30 00:50:36;;;;;;;0.13;0.10;;;12.80;99.90;;;;;;5075685;28;20044;-83
2022/07/30 00:53:02;;;;;;;0.30;0.25;;;12.80;99.90;;;;;;5056101;28;20397;-83
2022/07/30 00:55:28;;;;;;;0.45;0.45;;;12.80;99.90;;;;;;5051005;28;20114;-83
2022/07/30 00:57:54;;;;;;;0.00;0.00;;;12.80;99.90;;;;;;5071280;28;20556;-83
2022/07/30 01:00:20;;;;;;;0.10;0.10;;;12.70;99.90;;;;;;5075272;28;20398;-83
2022/07/30 01:02:46;;;;;;;0.17;0.17;;;12.70;99.90;;;;;;5067510;28;20052;-83
2022/07/30 01:05:12;;;;;;;0.00;0.00;;;12.70;99.90;;;;;;5046214;28;20056;-83
2022/07/30 01:07:38;;;;;;;0.00;0.00;;;12.70;99.90;;;;;;5071081;28;20039;-83
2022/07/30 01:10:05;;;;;;;0.00;0.00;;;12.70;99.90;;;;;;5075532;28;20503;-83
2022/07/30 01:12:31;;;;;;;0.10;0.10;;;12.70;99.90;;;;;;5071243;28;20044;-83
2022/07/30 01:15:00;;;;;;;0.28;0.28;;;12.70;99.90;;;;;;5039507;23;20045;-82
2022/07/30 01:17:26;;;;;;;0.10;0.10;;;12.70;99.90;;;;;;5033750;28;20398;-82
2022/07/30 01:19:57;;;;;;;0.00;0.00;;;12.60;99.90;;;;;;5011351;28;20037;-82
2022/07/30 01:22:32;;;;;;;0.20;0.20;;;12.60;99.90;;;;;;5015192;28;20061;-82
2022/07/30 01:25:03;;;;;;;0.15;0.13;;;12.60;99.90;;;;;;5033951;28;20044;-82
2022/07/30 01:27:34;;;;;;;0.00;0.00;;;12.60;99.90;;;;;;5033680;28;20040;-82
2022/07/30 01:30:02;;;;;;;0.17;0.17;;;12.60;99.90;;;;;;5035414;28;20181;-82
2022/07/30 01:32:29;;;;;;;0.00;0.00;;;12.60;99.90;;;;;;5035319;28;20059;-82
2022/07/30 01:34:57;;;;;;;0.70;0.40;;;12.50;99.90;;;;;;5034516;28;20048;-82
2022/07/30 01:37:24;;;;;;;0.10;0.10;;;12.60;99.90;;;;;;5003757;28;20160;-82
2022/07/30 01:39:52;;;;;;;0.68;0.65;;;12.50;99.90;;;;;;5015261;28;20102;-82
2022/07/30 01:42:19;;;;;;;0.20;0.20;;;12.50;99.90;;;;;;5020415;28;20076;-82
2022/07/30 01:44:47;;;;;;;0.15;0.15;;;12.50;99.90;;;;;;5017694;28;20495;-82
2022/07/30 01:47:14;;;;;;;0.00;0.00;;;12.40;99.90;;;;;;5025318;28;20042;-82
2022/07/30 01:49:40;;;;;;;0.20;0.20;;;12.40;99.90;;;;;;5011521;28;20037;-82
2022/07/30 01:52:08;;;;;;;0.20;0.20;;;12.40;99.90;;;;;;5018360;28;20040;-82
2022/07/30 01:54:36;;;;;;;0.10;0.10;;;12.30;99.90;;;;;;5037631;28;20047;-82
2022/07/30 01:57:04;;;;;;;0.25;0.25;;;12.30;99.90;;;;;;5051724;28;20040;-82
2022/07/30 01:59:33;;;;;;;0.10;0.10;;;12.30;99.90;;;;;;5055094;28;20059;-82
2022/07/30 02:01:59;;;;;;;0.30;0.20;;;12.30;99.90;;;;;;5054766;28;20059;-82
2022/07/30 02:04:26;;;;;;;0.17;0.17;;;12.30;99.90;;;;;;5054821;28;20044;-82
2022/07/30 02:07:15;;;;;;;0.13;0.13;;;12.20;99.90;;;;;;5052316;28;20141;-82
2022/07/30 02:09:50;;;;;;;0.80;0.32;;;12.20;99.90;;;;;;5035892;28;20047;-82
2022/07/30 02:12:28;;;;;;;0.00;0.00;;;12.30;99.90;;;;;;5055124;28;20080;-82
2022/07/30 02:15:17;;;;;;;0.08;0.08;;;12.30;99.90;;;;;;5046483;28;20096;-82
2022/07/30 02:17:48;;;;;;;0.10;0.10;;;12.30;99.90;;;;;;5079546;28;20058;-82
2022/07/30 02:20:15;;;;;;;0.22;0.22;;;12.40;99.90;;;;;;5040295;28;20128;-82
2022/07/30 02:22:45;;;;;;;0.10;0.10;;;12.50;99.90;;;;;;5066303;28;20115;-82
2022/07/30 02:25:16;;;;;;;0.20;0.20;;;12.50;99.90;;;;;;5041731;28;20064;-83
2022/07/30 02:27:43;;;;;;;0.32;0.32;;;12.50;99.90;;;;;;5058793;28;20041;-83
2022/07/30 02:30:11;;;;;;;1.58;0.77;;;12.50;99.90;;;;;;5038163;28;20102;-83
2022/07/30 02:32:40;;;;;;;0.13;0.13;;;12.60;99.90;;;;;;5048034;28;20044;-82
2022/07/30 02:35:15;;;;;;;0.98;0.80;;;12.60;99.90;;;;;;5057899;28;20044;-82
2022/07/30 02:37:44;;;;;;;0.20;0.20;;;12.70;99.90;;;;;;5055871;28;20410;-82
2022/07/30 02:40:14;;;;;;;0.25;0.25;;;12.80;99.90;;;;;;5025349;28;20460;-83
2022/07/30 02:42:44;;;;;;;0.10;0.10;;;12.90;99.90;;;;;;5021219;28;20037;-83
2022/07/30 02:45:11;;;;;;;0.75;0.75;;;13.00;99.90;;;;;;5037807;28;20087;-83
2022/07/30 02:47:38;;;;;;;0.20;0.20;;;13.00;99.90;;;;;;5056050;28;20124;-83
2022/07/30 02:50:06;;;;;;;0.10;0.10;;;13.10;99.90;;;;;;5060590;28;20089;-82
2022/07/30 02:52:33;;;;;;;0.28;0.28;;;13.10;99.90;;;;;;5051358;28;20086;-83
2022/07/30 02:55:01;;;;;;;0.17;0.17;;;12.90;99.90;;;;;;5061207;28;20040;-83
2022/07/30 02:57:27;;;;;;;0.13;0.13;;;12.90;99.90;;;;;;5042591;28;20047;-83
2022/07/30 02:59:55;;;;;;;0.10;0.10;;;12.90;99.90;;;;;;5038897;28;20131;-83
2022/07/30 03:02:22;;;;;;;0.20;0.20;;;12.80;99.90;;;;;;5057382;28;20040;-83
2022/07/30 03:04:49;;;;;;;0.28;0.20;;;12.80;99.90;;;;;;5057492;28;20086;-82
2022/07/30 03:07:15;;;;;;;0.32;0.17;;;12.80;99.90;;;;;;5070053;28;20558;-82
2022/07/30 03:09:42;;;;;;;0.10;0.10;;;12.80;99.90;;;;;;5042284;28;20033;-82
2022/07/30 03:12:11;;;;;;;0.30;0.30;;;12.70;99.90;;;;;;5058086;28;20052;-82
2022/07/30 03:14:37;;;;;;;0.15;0.15;;;12.70;99.90;;;;;;5067696;28;20064;-82
2022/07/30 03:17:04;;;;;;;0.13;0.13;;;12.60;99.90;;;;;;5017462;28;20061;-82
2022/07/30 03:19:32;;;;;;;0.10;0.10;;;12.70;99.90;;;;;;5036201;28;20052;-82
2022/07/30 03:22:01;;;;;;;0.00;0.00;;;12.60;99.90;;;;;;5018606;28;20060;-83
2022/07/30 03:24:27;;;;;;;0.20;0.20;;;12.60;99.90;;;;;;5037464;28;20128;-83
2022/07/30 03:26:55;;;;;;;0.20;0.20;;;12.60;99.90;;;;;;5036933;28;20037;-83
2022/07/30 03:29:23;;;;;;;0.25;0.25;;;12.60;99.90;;;;;;5036855;28;20044;-83
2022/07/30 03:31:49;;;;;;;0.00;0.00;;;12.60;99.90;;;;;;5037288;28;20033;-83
2022/07/30 03:34:16;;;;;;;0.20;0.20;;;12.60;99.90;;;;;;5037269;28;20095;-83
2022/07/30 03:36:42;;;;;;;0.10;0.10;;;12.70;99.90;;;;;;5020920;28;20482;-83
2022/07/30 03:39:08;;;;;;;0.10;0.10;;;12.70;99.90;;;;;;5019350;28;20045;-82
2022/07/30 03:41:39;;;;;;;0.00;0.00;;;12.70;99.90;;;;;;5033967;28;20037;-82
2022/07/30 03:44:06;;;;;;;0.47;0.30;;;12.80;99.90;;;;;;5050918;28;20053;-82
2022/07/30 03:46:35;;;;;;;0.47;0.47;;;12.80;99.90;;;;;;5037022;28;20045;-82
2022/07/30 03:49:01;;;;;;;0.03;0.03;;;12.80;99.90;;;;;;5037267;28;20110;-82
2022/07/30 03:51:27;;;;;;;0.05;0.05;;;12.80;99.90;;;;;;5035863;28;20033;-82
2022/07/30 03:53:54;;;;;;;0.15;0.15;;;12.80;99.90;;;;;;5020613;28;20151;-83
2022/07/30 03:56:21;;;;;;;0.20;0.20;;;12.80;99.90;;;;;;5033668;28;20060;-83
2022/07/30 03:58:47;;;;;;;0.10;0.10;;;12.80;99.90;;;;;;5017675;28;20053;-82
2022/07/30 04:01:12;;;;;;;0.10;0.10;;;12.80;99.90;;;;;;5005143;28;20050;-83
2022/07/30 04:03:38;;;;;;;0.20;0.20;;;12.80;99.90;;;;;;5027198;28;20085;-83
2022/07/30 04:06:04;;;;;;;0.10;0.10;;;12.70;99.90;;;;;;5019327;28;20144;-83
2022/07/30 04:08:30;;;;;;;0.00;0.00;;;12.70;99.90;;;;;;5051575;28;20106;-83
2022/07/30 04:10:56;;;;;;;0.00;0.00;;;12.70;99.90;;;;;;5036322;28;20450;-83
2022/07/30 04:13:22;;;;;;;0.52;0.47;;;12.60;99.90;;;;;;5029263;28;20124;-83
2022/07/30 04:16:00;;;;;;;0.10;0.10;;;12.60;99.90;;;;;;5016112;28;20175;-83
2022/07/30 04:18:27;;;;;;;0.10;0.10;;;12.60;99.90;;;;;;5016284;28;20053;-83
2022/07/30 04:20:54;;;;;;;0.10;0.10;;;12.60;99.90;;;;;;5044155;28;20499;-83
2022/07/30 04:23:20;;;;;;;0.43;0.43;;;12.60;99.90;;;;;;5018697;28;20037;-83
2022/07/30 04:25:47;;;;;;;0.20;0.20;;;12.50;99.90;;;;;;5035907;28;20044;-83
2022/07/30 04:28:13;;;;;;;0.32;0.32;;;12.50;99.90;;;;;;5018409;28;20152;-83
2022/07/30 04:30:39;;;;;;;1.08;0.47;;;12.50;99.90;;;;;;4999562;28;20492;-83
2022/07/30 04:33:07;;;;;;;0.30;0.30;;;12.50;99.90;;;;;;5022770;28;20088;-83
2022/07/30 04:35:34;;;;;;;0.30;0.30;;;12.60;99.90;;;;;;5035862;28;20052;-83
2022/07/30 04:38:02;;;;;;;0.10;0.10;;;12.60;99.90;;;;;;5035743;28;20041;-83
2022/07/30 04:40:30;;;;;;;0.10;0.10;;;12.70;99.90;;;;;;5018553;28;20049;-83
2022/07/30 04:42:56;;;;;;;0.52;0.38;;;12.70;99.90;;;;;;5017003;28;20096;-83
2022/07/30 04:45:22;;;;;;;0.10;0.10;;;12.80;99.90;;;;;;5035627;28;20095;-83
2022/07/30 04:47:48;;;;;;;0.20;0.20;;;12.90;99.90;;;;;;5019061;28;20044;-82
2022/07/30 04:50:14;;;;;;;0.10;0.10;;;13.00;99.90;;;;;;5023823;28;20443;-82
2022/07/30 04:52:41;;;;;;;0.10;0.10;;;13.00;99.90;;;;;;5015628;28;20041;-82
2022/07/30 04:55:09;;;;;;;0.30;0.25;;;13.10;99.90;;;;;;5030354;28;20045;-82
2022/07/30 04:57:37;;;;;;;0.20;0.20;;;13.20;99.90;;;;;;5034754;28;20037;-82
2022/07/30 05:00:05;;;;;;;0.80;0.73;;;13.30;99.90;;;;;;5034765;28;20115;-82
2022/07/30 05:02:33;;;;;;;0.35;0.35;;;13.40;99.90;;;;;;5045560;28;20055;-82
2022/07/30 05:05:01;;;;;;;0.20;0.20;;;13.60;99.90;;;;;;5019306;28;20041;-82
2022/07/30 05:07:27;;;;;;;0.10;0.10;;;13.60;99.90;;;;;;5035398;28;20041;-82
2022/07/30 05:09:53;;;;;;;0.00;0.00;;;13.90;99.90;;;;;;5033636;28;20539;-82
2022/07/30 05:12:20;;;;;;;0.13;0.10;;;14.10;99.90;;;;;;5035519;28;20111;-82
2022/07/30 05:14:46;;;;;;;0.30;0.30;;;14.40;99.90;;;;;;5031838;28;20095;-82
2022/07/30 05:17:12;;;;;;;0.20;0.20;;;14.70;99.90;;;;;;5019155;28;20131;-82
2022/07/30 05:19:37;;;;;;;0.20;0.20;;;14.90;99.90;;;;;;5018832;28;20168;-82
2022/07/30 05:22:03;;;;;;;0.10;0.10;;;15.10;99.90;;;;;;5017267;28;20052;-82
2022/07/30 05:24:29;;;;;;;0.10;0.10;;;15.30;99.90;;;;;;5015419;28;20128;-83
2022/07/30 05:26:54;;;;;;;0.10;0.10;;;15.40;99.90;;;;;;5015870;28;20036;-83
2022/07/30 05:29:20;;;;;;;0.10;0.10;;;16.20;99.90;;;;;;5035143;28;20033;-83
2022/07/30 05:31:47;;;;;;;0.30;0.30;;;16.30;99.90;;;;;;5025645;28;20104;-83
2022/07/30 05:34:12;;;;;;;0.10;0.10;;;16.50;99.90;;;;;;5015658;28;20143;-83
2022/07/30 05:36:38;;;;;;;0.10;0.10;;;16.60;99.90;;;;;;5025244;28;20088;-83
2022/07/30 05:39:04;;;;;;;0.22;0.20;;;16.70;99.90;;;;;;5034381;28;20064;-83
2022/07/30 05:41:30;;;;;;;0.17;0.17;;;16.70;99.90;;;;;;5029600;28;20045;-84
2022/07/30 05:43:56;;;;;;;0.20;0.20;;;16.80;99.90;;;;;;5015164;28;20037;-83
2022/07/30 05:46:22;;;;;;;0.22;0.22;;;17.10;99.90;;;;;;5018589;28;20048;-84
2022/07/30 05:48:47;;;;;;;0.20;0.20;;;17.10;99.90;;;;;;5024652;28;20033;-83
2022/07/30 05:51:13;;;;;;;0.00;0.00;;;17.30;99.90;;;;;;5038302;28;20099;-83
2022/07/30 05:53:39;;;;;;;0.00;0.00;;;17.80;99.90;;;;;;5019166;28;20077;-83
2022/07/30 05:56:05;;;;;;;0.00;0.00;;;18.60;99.90;;;;;;5020271;28;20088;-83
2022/07/30 05:58:30;;;;;;;0.10;0.10;;;18.80;99.90;;;;;;5022671;28;20388;-83
2022/07/30 06:00:56;;;;;;;2.28;1.23;;;19.40;99.90;;;;;;5022130;28;20041;-83
2022/07/30 06:03:22;;;;;;;0.15;0.10;;;20.80;99.90;;;;;;5038634;28;20080;-83
2022/07/30 06:05:47;;;;;;;0.10;0.10;;;21.80;99.90;;;;;;5039084;28;20379;-83
2022/07/30 06:08:13;;;;;;;0.30;0.30;;;21.70;99.90;;;;;;5038937;28;20439;-83
2022/07/30 06:10:39;;;;;;;0.30;0.30;;;22.30;99.90;;;;;;5037519;28;20048;-84
2022/07/30 06:13:04;;;;;;;0.25;0.22;;;22.80;99.90;;;;;;5036581;28;20128;-84
2022/07/30 06:15:30;;;;;;;0.05;0.05;;;22.50;99.90;;;;;;5024970;28;20049;-84
2022/07/30 06:17:56;;;;;;;0.10;0.10;;;22.20;99.90;;;;;;5019241;28;20056;-84
2022/07/30 06:20:21;;;;;;;0.30;0.30;;;22.40;99.90;;;;;;5038256;28;20090;-84
2022/07/30 06:22:47;;;;;;;0.10;0.10;;;22.80;99.90;;;;;;5037406;28;20095;-84
2022/07/30 06:25:13;;;;;;;0.17;0.17;;;23.50;99.90;;;;;;5021448;28;20051;-84
2022/07/30 06:27:39;;;;;;;0.55;0.55;;;23.80;99.90;;;;;;4998928;28;20073;-84
2022/07/30 06:30:07;;;;;;;0.00;0.00;;;24.90;99.90;;;;;;5041488;28;20037;-84
2022/07/30 06:32:34;;;;;;;0.08;0.08;;;25.20;99.90;;;;;;5038667;28;20391;-84
2022/07/30 06:35:00;;;;;;;1.55;0.13;;;26.00;99.90;;;;;;5002571;28;20060;-84
2022/07/30 06:37:26;;;;;;;0.13;0.13;;;26.00;99.90;;;;;;5018697;28;20076;-84
2022/07/30 06:39:52;;;;;;;0.35;0.22;;;26.40;99.90;;;;;;5014263;28;20087;-84
2022/07/30 06:42:18;;;;;;;0.20;0.20;;;26.30;99.90;;;;;;5021632;28;20446;-84
2022/07/30 06:44:43;;;;;;;0.00;0.00;;;26.70;99.90;;;;;;5038051;28;20040;-84
2022/07/30 06:47:09;;;;;;;0.20;0.20;;;26.90;99.90;;;;;;5038414;28;20098;-84
2022/07/30 06:49:36;;;;;;;0.10;0.10;;;26.70;99.90;;;;;;5038283;28;20045;-84
2022/07/30 06:52:02;;;;;;;0.57;0.52;;;26.90;99.90;;;;;;5022692;28;20036;-84
2022/07/30 06:54:28;;;;;;;0.20;0.20;;;27.50;99.90;;;;;;5051761;28;20037;-84
2022/07/30 06:56:53;;;;;;;0.17;0.17;;;27.80;99.90;;;;;;4987738;28;20044;-84
2022/07/30 06:59:19;;;;;;;0.20;0.10;;;28.10;99.70;;;;;;5031233;28;20041;-84
2022/07/30 07:01:45;;;;;;;0.20;0.20;;;28.20;99.10;;;;;;5026957;28;20099;-84
2022/07/30 07:04:11;;;;;;;0.17;0.17;;;27.40;99.50;;;;;;5021483;28;20036;-84
2022/07/30 07:06:37;;;;;;;0.55;0.55;;;26.60;99.90;;;;;;5041646;28;20037;-84
2022/07/30 07:09:03;;;;;;;0.50;0.43;;;25.80;99.90;;;;;;5001184;28;20037;-83
2022/07/30 07:11:29;;;;;;;0.98;0.43;;;25.10;99.90;;;;;;5021284;28;20037;-84
2022/07/30 07:13:55;;;;;;;0.32;0.32;;;24.50;99.90;;;;;;5037055;28;20041;-84
2022/07/30 07:16:24;;;;;;;0.75;0.75;;;24.10;99.90;;;;;;5021194;28;20060;-84
2022/07/30 07:18:51;;;;;;;0.20;0.20;;;24.80;99.90;;;;;;5031356;28;20406;-84
2022/07/30 07:21:17;;;;;;;0.60;0.52;;;27.50;99.90;;;;;;5036157;28;20037;-84
2022/07/30 07:23:43;;;;;;;0.10;0.10;;;27.50;99.90;;;;;;5037014;28;20048;-84
2022/07/30 07:26:10;;;;;;;0.00;0.00;;;27.70;99.90;;;;;;5036919;28;20044;-84
2022/07/30 07:28:36;;;;;;;0.43;0.43;;;27.20;99.30;;;;;;5035711;28;20037;-84
2022/07/30 07:31:02;;;;;;;0.20;0.20;;;26.70;99.90;;;;;;5036010;28;20044;-84
2022/07/30 07:33:27;;;;;;;0.00;0.00;;;25.90;99.90;;;;;;5037118;28;20049;-84
2022/07/30 07:35:54;;;;;;;0.35;0.35;;;25.40;99.90;;;;;;5036543;28;20486;-84
2022/07/30 07:38:21;;;;;;;0.20;0.20;;;24.90;99.90;;;;;;5037281;28;20049;-84
2022/07/30 07:40:47;;;;;;;0.47;0.30;;;24.60;99.90;;;;;;5036965;28;20037;-84
2022/07/30 07:43:13;;;;;;;2.00;0.80;;;24.20;99.90;;;;;;5018489;28;20537;-84
2022/07/30 07:45:40;;;;;;;0.17;0.17;;;24.00;99.90;;;;;;5036571;28;20095;-84
2022/07/30 07:48:06;;;;;;;0.15;0.15;;;23.80;99.90;;;;;;5037299;28;20036;-84
2022/07/30 07:50:32;;;;;;;0.10;0.10;;;24.30;99.90;;;;;;5020394;28;20037;-85
2022/07/30 07:52:58;;;;;;;0.28;0.28;;;25.80;99.90;;;;;;5037508;28;20500;-85
2022/07/30 07:55:25;;;;;;;0.50;0.50;;;27.40;99.90;;;;;;5035606;28;20175;-85
2022/07/30 07:57:51;;;;;;;0.20;0.20;;;28.90;97.70;;;;;;5054024;28;20131;-85
2022/07/30 08:00:17;;;;;;;1.90;0.40;;;29.70;96.90;;;;;;5037340;28;20052;-85
2022/07/30 08:02:43;;;;;;;0.40;0.40;;;28.60;95.30;;;;;;5037032;28;20041;-85
2022/07/30 08:05:11;;;;;;;0.17;0.17;;;27.40;96.30;;;;;;5037142;28;20041;-85
2022/07/30 08:07:38;;;;;;;0.38;0.38;;;26.10;97.40;;;;;;5019679;28;20080;-85
2022/07/30 08:10:05;;;;;;;0.05;0.05;;;25.40;98.80;;;;;;5020367;28;20120;-85
2022/07/30 08:12:31;;;;;;;0.20;0.20;;;26.00;99.00;;;;;;5020468;28;20495;-85
2022/07/30 08:14:57;;;;;;;0.30;0.30;;;27.40;98.00;;;;;;5029375;28;20064;-85
2022/07/30 08:17:23;;;;;;;0.40;0.35;;;28.80;96.80;;;;;;5000545;28;20160;-85
2022/07/30 08:19:49;;;;;;;0.55;0.30;;;29.80;94.30;;;;;;5015810;28;20372;-86
2022/07/30 08:22:15;;;;;;;4.68;0.73;;;30.60;94.60;;;;;;5016565;28;20049;-86
2022/07/30 08:24:41;;;;;;;0.00;0.00;;;31.30;93.80;;;;;;5016080;28;20045;-86
2022/07/30 08:27:06;;;;;;;0.75;0.50;;;32.10;92.90;;;;;;5000397;28;20038;-86
2022/07/30 08:29:32;;;;;;;0.28;0.28;;;33.20;91.50;;;;;;5016964;28;20067;-86
2022/07/30 08:31:58;;;;;;;0.20;0.20;;;32.60;90.20;;;;;;5000158;28;20530;-86
2022/07/30 08:34:24;;;;;;;0.60;0.60;;;31.10;90.00;;;;;;5016030;28;20076;-87
2022/07/30 08:36:49;;;;;;;0.10;0.10;;;31.30;92.10;;;;;;5016596;28;20124;-85
2022/07/30 08:39:15;;;;;;;0.10;0.10;;;31.80;92.00;;;;;;5016792;28;20041;-85
2022/07/30 08:41:41;;;;;;;0.10;0.10;;;32.50;91.00;;;;;;5016073;28;20547;-84
2022/07/30 08:44:10;;;;;;;0.20;0.20;;;33.00;90.40;;;;;;4999061;28;20091;-84
2022/07/30 08:46:41;;;;;;;0.10;0.10;;;33.60;88.60;;;;;;5015568;28;20045;-84
2022/07/30 08:49:07;;;;;;;0.28;0.28;;;33.70;88.70;;;;;;5016782;28;20175;-84
2022/07/30 08:51:33;;;;;;;0.10;0.10;;;34.00;87.30;;;;;;5016335;28;20502;-84
2022/07/30 08:54:00;;;;;;;0.55;0.40;;;33.30;86.80;;;;;;5016466;28;20056;-84
2022/07/30 08:56:26;;;;;;;0.30;0.30;;;;;;;;;;5011422;28;20061;-84
2022/07/30 08:58:52;;;;;;;0.15;0.15;;;31.50;87.90;;;;;;4996350;28;20407;-85
2022/07/30 09:01:19;;;;;;;0.45;0.45;;;32.10;87.30;;;;;;4996177;28;20524;-85
2022/07/30 09:03:44;;;;;;;0.10;0.10;;;32.90;85.60;;;;;;4979783;28;20045;-85
2022/07/30 09:06:11;;;;;;;0.38;0.38;;;33.80;84.60;;;;;;5001944;28;20041;-85
2022/07/30 09:08:36;;;;;;;0.22;0.22;;;34.50;84.60;;;;;;5015714;28;20037;-85
2022/07/30 09:11:02;;;;;;;0.28;0.28;;;34.20;81.70;;;;;;5015859;28;20057;-84
2022/07/30 09:13:31;;;;;;;0.20;0.20;;;32.20;82.40;;;;;;5000355;28;20051;-84
2022/07/30 09:15:57;;;;;;;0.10;0.10;;;31.60;84.80;;;;;;5031323;28;20096;-85
2022/07/30 09:18:43;;;;;;;0.30;0.30;;;31.10;86.70;;;;;;5034795;28;20128;-85
2022/07/30 09:21:26;;;;;;;0.32;0.20;;;32.40;87.30;;;;;;5020257;28;20056;-85
2022/07/30 09:24:11;;;;;;;0.55;0.55;;;32.40;83.20;;;;;;5019978;28;20124;-85
2022/07/30 09:27:01;;;;;;;0.20;0.20;;;33.10;82.70;;;;;;5037283;28;20417;-85
2022/07/30 09:29:28;;;;;;;1.65;0.95;;;33.90;83.20;;;;;;5027675;28;20033;-87
2022/07/30 09:31:55;;;;;;;0.17;0.17;;;33.50;82.80;;;;;;5039412;28;20099;-85
2022/07/30 09:34:32;;;;;;;0.35;0.35;;;32.90;80.40;;;;;;5039338;28;20051;-85
2022/07/30 09:37:01;;;;;;;1.00;0.90;;;31.40;82.40;;;;;;5022836;28;20053;-85
2022/07/30 09:39:35;;;;;;;0.93;0.35;;;31.80;83.00;;;;;;5022931;28;20059;-85
2022/07/30 09:42:03;;;;;;;0.20;0.20;;;32.50;82.60;;;;;;5021564;28;20039;-85
2022/07/30 09:44:29;;;;;;;0.40;0.40;;;32.50;82.80;;;;;;5022392;28;20103;-85
2022/07/30 09:46:56;;;;;;;0.57;0.57;;;33.40;81.40;;;;;;5034638;28;20079;-85
2022/07/30 09:49:25;;;;;;;0.17;0.17;;;33.70;81.50;;;;;;5039218;28;20052;-86
2022/07/30 09:51:51;;;;;;;0.25;0.25;;;34.10;80.20;;;;;;5038149;28;20399;-85
2022/07/30 09:54:17;;;;;;;0.30;0.30;;;34.40;79.60;;;;;;5038923;28;20047;-85
2022/07/30 09:56:45;;;;;;;0.10;0.10;;;35.10;79.10;;;;;;5032242;28;20081;-85
2022/07/30 09:59:26;;;;;;;0.32;0.30;;;35.50;77.90;;;;;;5036036;28;20033;-85
2022/07/30 10:01:53;;;;;;;0.10;0.10;;;36.30;76.10;;;;;;5039210;28;20455;-85
2022/07/30 10:04:23;;;;;;;0.35;0.25;;;36.70;76.00;;;;;;5032837;28;20049;-85
2022/07/30 10:06:49;;;;;;;0.10;0.10;;;37.10;75.20;;;;;;5018804;28;20369;-86
2022/07/30 10:09:24;;;;;;;0.15;0.15;;;37.30;73.60;;;;;;5021827;28;20044;-85
2022/07/30 10:11:52;;;;;;;0.30;0.30;;;37.00;72.40;;;;;;5030066;28;20376;-85
2022/07/30 10:14:19;;;;;;;0.20;0.20;;;36.20;72.90;;;;;;5045856;22;20421;-84
2022/07/30 10:16:46;;;;;;;0.20;0.20;;;36.10;73.70;;;;;;5035726;28;20402;-85
2022/07/30 10:19:12;;;;;;;0.43;0.30;;;36.10;71.10;;;;;;5038271;28;20068;-85
2022/07/30 10:21:38;;;;;;;0.20;0.20;;;36.40;70.90;;;;;;5038189;28;20052;-85
2022/07/30 10:24:05;;;;;;;0.15;0.15;;;36.70;72.60;;;;;;5037802;28;20045;-85
2022/07/30 10:26:33;;;;;;;2.88;0.60;;;37.30;72.40;;;;;;5037905;28;20123;-85
2022/07/30 10:29:00;;;;;;;0.35;0.35;;;37.30;70.10;;;;;;5023966;28;20049;-84
2022/07/30 10:31:26;;;;;;;0.55;0.28;;;37.10;70.30;;;;;;5017752;28;20057;-84
2022/07/30 10:33:52;;;;;;;0.40;0.40;;;37.20;70.30;;;;;;5038385;28;20049;-85
2022/07/30 10:36:19;;;;;;;0.20;0.20;;;37.20;69.50;;;;;;5022356;28;20033;-85
2022/07/30 10:38:46;;;;;;;0.10;0.10;;;37.40;69.20;;;;;;5027773;28;20108;-85
2022/07/30 10:41:33;;;;;;;0.82;0.47;;;36.60;68.00;;;;;;5035205;28;20042;-84
2022/07/30 10:44:19;;;;;;;0.10;0.10;;;35.90;70.00;;;;;;5031279;28;20147;-84
2022/07/30 10:47:05;;;;;;;0.10;0.10;;;35.90;70.80;;;;;;5049286;28;20037;-84
2022/07/30 10:49:31;;;;;;;0.20;0.20;;;35.90;69.40;;;;;;5044351;28;20110;-84
2022/07/30 10:51:57;;;;;;;1.10;0.73;;;36.30;68.80;;;;;;5052806;28;20120;-84
2022/07/30 10:54:32;;;;;;;0.10;0.10;;;35.80;68.30;;;;;;5035482;28;20534;-85
2022/07/30 10:57:17;;;;;;;0.40;0.40;;;34.30;70.00;;;;;;5038407;28;20052;-85
2022/07/30 10:59:49;;;;;;;0.10;0.10;;;33.50;70.60;;;;;;5057320;28;20394;-84
2022/07/30 11:02:19;;;;;;;0.28;0.28;;;34.00;71.20;;;;;;5037642;28;20124;-85
2022/07/30 11:04:45;;;;;;;0.10;0.10;;;34.20;71.20;;;;;;5069373;28;20372;-85
2022/07/30 11:07:23;;;;;;;0.20;0.20;;;34.30;70.10;;;;;;5039420;28;20072;-86
2022/07/30 11:09:51;;;;;;;0.13;0.13;;;34.00;70.90;;;;;;5038652;28;20072;-86
2022/07/30 11:12:42;;;;;;;0.13;0.13;;;34.40;70.50;;;;;;5064231;28;20099;-86
2022/07/30 11:15:10;;;;;;;0.17;0.17;;;34.80;70.60;;;;;;5047852;28;20399;-87
2022/07/30 11:17:57;;;;;;;0.17;0.17;;;35.30;70.80;;;;;;5059600;28;20075;-86
2022/07/30 11:20:24;;;;;;;0.28;0.22;;;35.70;70.40;;;;;;5038582;28;20029;-87
2022/07/30 11:22:49;;;;;;;0.32;0.32;;;35.50;70.50;;;;;;5064262;28;20059;-86
2022/07/30 11:25:21;;;;;;;0.10;0.10;;;35.50;69.30;;;;;;5048938;28;20044;-86
2022/07/30 11:27:49;;;;;;;0.10;0.10;;;35.20;68.00;;;;;;5058990;28;20036;-86
2022/07/30 11:30:14;;;;;;;2.17;1.02;;;34.20;67.80;;;;;;5067408;28;20032;-86
2022/07/30 11:32:45;;;;;;;0.00;0.00;;;33.40;69.10;;;;;;5071453;28;20042;-87
2022/07/30 11:35:20;;;;;;;0.13;0.13;;;33.00;69.90;;;;;;5070015;28;20044;-86
2022/07/30 11:38:02;;;;;;;0.13;0.13;;;32.00;71.00;;;;;;5043910;28;20102;-85
2022/07/30 11:40:49;;;;;;;0.20;0.20;;;31.90;71.40;;;;;;5056940;28;20051;-86
2022/07/30 11:43:23;;;;;;;0.10;0.10;;;32.10;72.20;;;;;;5055709;28;20394;-86
2022/07/30 11:46:05;;;;;;;5.00;2.20;;;32.40;71.50;;;;;;5056705;28;20466;-86
2022/07/30 11:48:31;;;;;;;0.20;0.20;;;32.40;71.20;;;;;;5038655;28;20199;-86
2022/07/30 11:50:57;;;;;;;0.10;0.10;;;32.70;71.00;;;;;;5021300;28;20033;-86
2022/07/30 11:53:23;;;;;;;0.45;0.40;;;32.80;70.00;;;;;;5039599;28;20048;-86
2022/07/30 11:55:50;;;;;;;0.30;0.30;;;32.80;70.60;;;;;;5051600;28;20035;-86
2022/07/30 11:58:33;;;;;;;0.40;0.40;;;32.60;70.10;;;;;;5041494;28;20099;-84
2022/07/30 12:01:04;;;;;;;0.17;0.17;;;32.80;71.40;;;;;;5056867;28;20509;-84
2022/07/30 12:03:31;;;;;;;0.80;0.80;;;33.30;71.20;;;;;;5056612;28;20044;-84
2022/07/30 12:06:04;;;;;;;0.35;0.35;;;33.40;69.60;;;;;;5040309;28;20048;-85
2022/07/30 12:08:45;;;;;;;0.32;0.32;;;33.50;69.00;;;;;;5038917;28;20667;-84
2022/07/30 12:11:11;;;;;;;0.10;0.10;;;33.30;70.40;;;;;;5056641;28;20037;-85
2022/07/30 12:13:38;;;;;;;0.10;0.10;;;33.10;70.50;;;;;;5036850;28;20047;-84
2022/07/30 12:16:09;;;;;;;0.45;0.45;;;33.20;70.00;;;;;;5026178;28;20110;-87
2022/07/30 12:18:36;;;;;;;0.40;0.40;;;33.60;69.10;;;;;;5036798;28;20049;-84
2022/07/30 12:21:04;;;;;;;0.10;0.10;;;34.10;67.50;;;;;;5036279;28;20049;-84
2022/07/30 12:23:30;;;;;;;0.32;0.22;;;34.30;67.70;;;;;;5036723;28;20049;-84
2022/07/30 12:25:57;;;;;;;0.20;0.20;;;34.00;66.70;;;;;;5029019;28;20089;-84
2022/07/30 12:28:28;;;;;;;0.30;0.25;;;34.00;67.10;;;;;;5055134;28;20040;-83
2022/07/30 12:30:55;;;;;;;0.28;0.28;;;33.70;66.40;;;;;;5041049;28;20037;-84
2022/07/30 12:33:22;;;;;;;0.10;0.10;;;33.20;66.50;;;;;;5056351;28;20035;-84
2022/07/30 12:35:57;;;;;;;0.03;0.03;;;33.20;66.90;;;;;;5054252;28;20040;-84
2022/07/30 12:38:25;;;;;;;0.13;0.13;;;33.20;66.90;;;;;;5039610;28;20040;-84
2022/07/30 12:41:08;;;;;;;0.20;0.20;;;33.00;67.90;;;;;;5039384;28;20486;-84
2022/07/30 12:43:54;;;;;;;0.13;0.13;;;33.20;67.90;;;;;;5056192;28;20077;-84
2022/07/30 12:46:26;;;;;;;0.63;0.35;;;33.30;68.20;;;;;;5054996;28;20037;-86
2022/07/30 12:48:57;;;;;;;0.15;0.15;;;33.20;66.00;;;;;;5056616;28;20394;-86
2022/07/30 12:51:26;;;;;;;0.20;0.20;;;32.70;65.40;;;;;;5056289;28;20040;-86
2022/07/30 12:53:52;;;;;;;324.13;16.88;;;32.40;67.90;;;;;;5039586;28;20059;-91